sensor_id;sensor_type;location;lat;lon;timestamp;P1;durP1;ratioP1;P2;durP2;ratioP2
15526;SDS011;7865;50.918;4.510;2023-07-28T00:01:46;15.23;;;5.80;;
15526;SDS011;7865;50.918;4.510;2023-07-28T00:06:47;6.05;;;4.22;;
15526;SDS011;7865;50.918;4.510;2023-07-28T00:11:48;9.85;;;4.75;;
15526;SDS011;7865;50.918;4.510;2023-07-28T00:16:50;12.80;;;5.30;;
15526;SDS011;7865;50.918;4.510;2023-07-28T00:21:51;7.25;;;5.10;;
15526;SDS011;7865;50.918;4.510;2023-07-28T00:26:53;9.05;;;4.85;;
15526;SDS011;7865;50.918;4.510;2023-07-28T00:31:54;8.95;;;4.85;;
15526;SDS011;7865;50.918;4.510;2023-07-28T00:36:55;7.47;;;4.82;;
15526;SDS011;7865;50.918;4.510;2023-07-28T00:41:56;6.97;;;5.45;;
15526;SDS011;7865;50.918;4.510;2023-07-28T00:46:58;7.45;;;5.43;;
15526;SDS011;7865;50.918;4.510;2023-07-28T00:51:59;13.02;;;5.53;;
15526;SDS011;7865;50.918;4.510;2023-07-28T00:57:01;10.07;;;5.18;;
15526;SDS011;7865;50.918;4.510;2023-07-28T01:02:03;11.20;;;5.38;;
15526;SDS011;7865;50.918;4.510;2023-07-28T01:07:15;12.68;;;6.38;;
15526;SDS011;7865;50.918;4.510;2023-07-28T01:12:23;10.38;;;5.97;;
15526;SDS011;7865;50.918;4.510;2023-07-28T01:17:25;10.27;;;6.80;;
15526;SDS011;7865;50.918;4.510;2023-07-28T01:27:54;13.80;;;6.82;;
15526;SDS011;7865;50.918;4.510;2023-07-28T01:32:57;9.45;;;6.28;;
15526;SDS011;7865;50.918;4.510;2023-07-28T01:37:58;12.38;;;7.10;;
15526;SDS011;7865;50.918;4.510;2023-07-28T01:42:59;17.27;;;7.47;;
15526;SDS011;7865;50.918;4.510;2023-07-28T01:48:01;11.65;;;7.35;;
15526;SDS011;7865;50.918;4.510;2023-07-28T01:53:03;14.77;;;8.43;;
15526;SDS011;7865;50.918;4.510;2023-07-28T01:58:05;9.02;;;6.88;;
15526;SDS011;7865;50.918;4.510;2023-07-28T02:03:07;12.63;;;7.63;;
15526;SDS011;7865;50.918;4.510;2023-07-28T02:08:08;12.55;;;6.90;;
15526;SDS011;7865;50.918;4.510;2023-07-28T02:13:10;16.92;;;7.95;;
15526;SDS011;7865;50.918;4.510;2023-07-28T02:18:11;13.35;;;7.40;;
15526;SDS011;7865;50.918;4.510;2023-07-28T02:23:12;17.63;;;7.18;;
15526;SDS011;7865;50.918;4.510;2023-07-28T02:28:15;10.10;;;6.82;;
15526;SDS011;7865;50.918;4.510;2023-07-28T02:33:16;11.00;;;7.10;;
15526;SDS011;7865;50.918;4.510;2023-07-28T02:38:18;16.15;;;8.88;;
15526;SDS011;7865;50.918;4.510;2023-07-28T02:43:19;11.10;;;7.38;;
15526;SDS011;7865;50.918;4.510;2023-07-28T02:48:21;13.23;;;7.75;;
15526;SDS011;7865;50.918;4.510;2023-07-28T02:53:22;14.55;;;7.00;;
15526;SDS011;7865;50.918;4.510;2023-07-28T02:58:24;13.32;;;7.95;;
15526;SDS011;7865;50.918;4.510;2023-07-28T03:03:25;15.95;;;9.18;;
15526;SDS011;7865;50.918;4.510;2023-07-28T03:08:27;14.80;;;8.68;;
15526;SDS011;7865;50.918;4.510;2023-07-28T03:13:41;15.20;;;8.43;;
15526;SDS011;7865;50.918;4.510;2023-07-28T03:18:42;13.93;;;8.65;;
15526;SDS011;7865;50.918;4.510;2023-07-28T03:23:44;16.13;;;7.88;;
15526;SDS011;7865;50.918;4.510;2023-07-28T03:28:45;14.20;;;8.52;;
15526;SDS011;7865;50.918;4.510;2023-07-28T03:33:46;14.95;;;7.50;;
15526;SDS011;7865;50.918;4.510;2023-07-28T03:38:48;15.73;;;8.07;;
15526;SDS011;7865;50.918;4.510;2023-07-28T03:43:49;21.80;;;7.60;;
15526;SDS011;7865;50.918;4.510;2023-07-28T03:48:51;12.40;;;6.93;;
15526;SDS011;7865;50.918;4.510;2023-07-28T03:53:52;13.02;;;6.82;;
15526;SDS011;7865;50.918;4.510;2023-07-28T03:58:54;19.40;;;7.35;;
15526;SDS011;7865;50.918;4.510;2023-07-28T04:03:55;15.23;;;7.60;;
15526;SDS011;7865;50.918;4.510;2023-07-28T04:08:56;10.75;;;6.53;;
15526;SDS011;7865;50.918;4.510;2023-07-28T04:13:57;12.95;;;7.15;;
15526;SDS011;7865;50.918;4.510;2023-07-28T04:18:59;17.02;;;6.65;;
15526;SDS011;7865;50.918;4.510;2023-07-28T04:24:00;9.98;;;5.97;;
15526;SDS011;7865;50.918;4.510;2023-07-28T04:29:02;13.45;;;5.75;;
15526;SDS011;7865;50.918;4.510;2023-07-28T04:34:03;9.90;;;6.47;;
15526;SDS011;7865;50.918;4.510;2023-07-28T04:39:28;9.93;;;6.50;;
15526;SDS011;7865;50.918;4.510;2023-07-28T04:44:29;8.77;;;6.28;;
15526;SDS011;7865;50.918;4.510;2023-07-28T04:49:36;13.57;;;6.38;;
15526;SDS011;7865;50.918;4.510;2023-07-28T04:54:40;11.15;;;6.10;;
15526;SDS011;7865;50.918;4.510;2023-07-28T04:59:42;9.55;;;6.20;;
15526;SDS011;7865;50.918;4.510;2023-07-28T05:04:44;10.32;;;5.82;;
15526;SDS011;7865;50.918;4.510;2023-07-28T05:09:45;9.50;;;6.03;;
15526;SDS011;7865;50.918;4.510;2023-07-28T05:14:47;8.35;;;4.95;;
15526;SDS011;7865;50.918;4.510;2023-07-28T05:19:52;10.98;;;5.15;;
15526;SDS011;7865;50.918;4.510;2023-07-28T05:25:26;5.32;;;3.58;;
15526;SDS011;7865;50.918;4.510;2023-07-28T05:30:27;9.02;;;4.00;;
15526;SDS011;7865;50.918;4.510;2023-07-28T05:35:32;6.03;;;3.05;;
15526;SDS011;7865;50.918;4.510;2023-07-28T05:40:33;9.05;;;2.70;;
15526;SDS011;7865;50.918;4.510;2023-07-28T05:45:35;8.32;;;2.90;;
15526;SDS011;7865;50.918;4.510;2023-07-28T05:50:38;2.35;;;2.08;;
15526;SDS011;7865;50.918;4.510;2023-07-28T05:55:39;4.60;;;2.25;;
15526;SDS011;7865;50.918;4.510;2023-07-28T06:00:42;5.22;;;1.90;;
15526;SDS011;7865;50.918;4.510;2023-07-28T06:05:52;4.75;;;2.00;;
15526;SDS011;7865;50.918;4.510;2023-07-28T06:10:55;3.92;;;2.13;;
15526;SDS011;7865;50.918;4.510;2023-07-28T06:15:56;6.47;;;2.10;;
15526;SDS011;7865;50.918;4.510;2023-07-28T06:20:59;1.75;;;1.50;;
15526;SDS011;7865;50.918;4.510;2023-07-28T06:26:00;6.75;;;1.30;;
15526;SDS011;7865;50.918;4.510;2023-07-28T06:31:01;4.28;;;1.02;;
15526;SDS011;7865;50.918;4.510;2023-07-28T06:36:03;2.83;;;0.90;;
15526;SDS011;7865;50.918;4.510;2023-07-28T06:41:05;2.33;;;0.70;;
15526;SDS011;7865;50.918;4.510;2023-07-28T06:46:06;1.75;;;0.75;;
15526;SDS011;7865;50.918;4.510;2023-07-28T06:51:07;1.88;;;0.90;;
15526;SDS011;7865;50.918;4.510;2023-07-28T06:56:09;4.47;;;1.55;;
15526;SDS011;7865;50.918;4.510;2023-07-28T07:01:10;4.15;;;2.33;;
15526;SDS011;7865;50.918;4.510;2023-07-28T07:06:12;2.28;;;1.83;;
15526;SDS011;7865;50.918;4.510;2023-07-28T07:11:13;2.58;;;2.30;;
15526;SDS011;7865;50.918;4.510;2023-07-28T07:16:16;1.67;;;1.25;;
15526;SDS011;7865;50.918;4.510;2023-07-28T07:21:25;1.65;;;1.17;;
15526;SDS011;7865;50.918;4.510;2023-07-28T07:26:28;1.85;;;1.70;;
15526;SDS011;7865;50.918;4.510;2023-07-28T07:31:29;4.07;;;1.23;;
15526;SDS011;7865;50.918;4.510;2023-07-28T07:36:31;4.38;;;1.00;;
15526;SDS011;7865;50.918;4.510;2023-07-28T07:41:32;2.67;;;1.23;;
15526;SDS011;7865;50.918;4.510;2023-07-28T07:46:35;2.33;;;0.90;;
15526;SDS011;7865;50.918;4.510;2023-07-28T07:51:37;1.52;;;1.20;;
15526;SDS011;7865;50.918;4.510;2023-07-28T07:56:38;1.58;;;1.15;;
15526;SDS011;7865;50.918;4.510;2023-07-28T08:01:40;2.33;;;1.10;;
15526;SDS011;7865;50.918;4.510;2023-07-28T08:06:41;1.08;;;1.05;;
15526;SDS011;7865;50.918;4.510;2023-07-28T08:11:45;1.58;;;0.90;;
15526;SDS011;7865;50.918;4.510;2023-07-28T08:16:46;1.63;;;1.10;;
15526;SDS011;7865;50.918;4.510;2023-07-28T08:21:48;2.55;;;1.45;;
15526;SDS011;7865;50.918;4.510;2023-07-28T08:26:49;1.60;;;1.50;;
15526;SDS011;7865;50.918;4.510;2023-07-28T08:31:50;2.10;;;1.73;;
15526;SDS011;7865;50.918;4.510;2023-07-28T08:36:52;3.13;;;1.98;;
15526;SDS011;7865;50.918;4.510;2023-07-28T08:42:03;3.15;;;2.00;;
15526;SDS011;7865;50.918;4.510;2023-07-28T08:47:05;1.90;;;1.65;;
15526;SDS011;7865;50.918;4.510;2023-07-28T08:52:06;1.58;;;1.48;;
15526;SDS011;7865;50.918;4.510;2023-07-28T08:57:11;3.83;;;1.50;;
15526;SDS011;7865;50.918;4.510;2023-07-28T09:02:16;2.08;;;1.50;;
15526;SDS011;7865;50.918;4.510;2023-07-28T09:07:19;2.55;;;1.50;;
15526;SDS011;7865;50.918;4.510;2023-07-28T09:12:23;3.85;;;1.00;;
15526;SDS011;7865;50.918;4.510;2023-07-28T09:17:24;1.08;;;1.05;;
15526;SDS011;7865;50.918;4.510;2023-07-28T09:22:26;1.85;;;1.10;;
15526;SDS011;7865;50.918;4.510;2023-07-28T09:27:30;1.60;;;1.08;;
15526;SDS011;7865;50.918;4.510;2023-07-28T09:32:32;2.33;;;1.10;;
15526;SDS011;7865;50.918;4.510;2023-07-28T09:37:36;2.63;;;1.25;;
15526;SDS011;7865;50.918;4.510;2023-07-28T09:42:40;3.10;;;0.90;;
15526;SDS011;7865;50.918;4.510;2023-07-28T09:47:44;2.10;;;1.02;;
15526;SDS011;7865;50.918;4.510;2023-07-28T09:52:46;1.33;;;0.82;;
15526;SDS011;7865;50.918;4.510;2023-07-28T09:57:50;1.05;;;0.80;;
15526;SDS011;7865;50.918;4.510;2023-07-28T10:02:53;0.60;;;0.60;;
15526;SDS011;7865;50.918;4.510;2023-07-28T10:07:55;0.63;;;0.60;;
15526;SDS011;7865;50.918;4.510;2023-07-28T10:12:58;2.50;;;1.13;;
15526;SDS011;7865;50.918;4.510;2023-07-28T10:18:00;2.85;;;1.40;;
15526;SDS011;7865;50.918;4.510;2023-07-28T10:23:06;2.35;;;1.77;;
15526;SDS011;7865;50.918;4.510;2023-07-28T10:33:34;2.40;;;2.13;;
15526;SDS011;7865;50.918;4.510;2023-07-28T10:38:39;3.55;;;2.40;;
15526;SDS011;7865;50.918;4.510;2023-07-28T10:43:41;2.45;;;1.75;;
15526;SDS011;7865;50.918;4.510;2023-07-28T10:48:45;3.10;;;1.33;;
15526;SDS011;7865;50.918;4.510;2023-07-28T10:53:54;1.92;;;1.08;;
15526;SDS011;7865;50.918;4.510;2023-07-28T10:59:00;1.73;;;0.90;;
15526;SDS011;7865;50.918;4.510;2023-07-28T11:04:14;1.52;;;1.15;;
15526;SDS011;7865;50.918;4.510;2023-07-28T11:09:17;1.33;;;1.05;;
15526;SDS011;7865;50.918;4.510;2023-07-28T11:14:19;3.33;;;1.92;;
15526;SDS011;7865;50.918;4.510;2023-07-28T11:19:21;2.20;;;2.00;;
15526;SDS011;7865;50.918;4.510;2023-07-28T11:24:25;4.30;;;3.03;;
15526;SDS011;7865;50.918;4.510;2023-07-28T11:29:27;4.15;;;3.40;;
15526;SDS011;7865;50.918;4.510;2023-07-28T11:34:29;4.22;;;3.80;;
15526;SDS011;7865;50.918;4.510;2023-07-28T11:39:36;3.10;;;2.90;;
15526;SDS011;7865;50.918;4.510;2023-07-28T11:44:38;3.08;;;2.78;;
15526;SDS011;7865;50.918;4.510;2023-07-28T11:49:45;7.88;;;3.60;;
15526;SDS011;7865;50.918;4.510;2023-07-28T11:54:47;3.67;;;3.35;;
15526;SDS011;7865;50.918;4.510;2023-07-28T11:59:49;3.42;;;2.67;;
15526;SDS011;7865;50.918;4.510;2023-07-28T12:04:51;2.45;;;2.30;;
15526;SDS011;7865;50.918;4.510;2023-07-28T12:09:57;3.03;;;2.83;;
15526;SDS011;7865;50.918;4.510;2023-07-28T12:20:35;3.10;;;2.05;;
15526;SDS011;7865;50.918;4.510;2023-07-28T12:25:40;3.25;;;1.73;;
15526;SDS011;7865;50.918;4.510;2023-07-28T12:30:42;1.67;;;1.25;;
15526;SDS011;7865;50.918;4.510;2023-07-28T12:35:45;1.42;;;1.33;;
15526;SDS011;7865;50.918;4.510;2023-07-28T12:40:49;1.48;;;1.30;;
15526;SDS011;7865;50.918;4.510;2023-07-28T12:45:53;3.20;;;1.60;;
15526;SDS011;7865;50.918;4.510;2023-07-28T12:50:57;1.67;;;1.48;;
15526;SDS011;7865;50.918;4.510;2023-07-28T12:56:02;1.85;;;1.58;;
15526;SDS011;7865;50.918;4.510;2023-07-28T13:01:03;5.20;;;1.38;;
15526;SDS011;7865;50.918;4.510;2023-07-28T13:06:05;4.10;;;1.55;;
15526;SDS011;7865;50.918;4.510;2023-07-28T13:11:06;2.17;;;1.50;;
15526;SDS011;7865;50.918;4.510;2023-07-28T13:16:10;1.65;;;1.27;;
15526;SDS011;7865;50.918;4.510;2023-07-28T13:21:13;4.63;;;1.20;;
15526;SDS011;7865;50.918;4.510;2023-07-28T13:26:15;1.58;;;1.48;;
15526;SDS011;7865;50.918;4.510;2023-07-28T13:31:16;2.67;;;1.67;;
15526;SDS011;7865;50.918;4.510;2023-07-28T13:36:18;1.60;;;1.50;;
15526;SDS011;7865;50.918;4.510;2023-07-28T13:41:29;2.33;;;1.50;;
15526;SDS011;7865;50.918;4.510;2023-07-28T13:46:49;4.32;;;1.33;;
15526;SDS011;7865;50.918;4.510;2023-07-28T13:51:50;1.50;;;1.40;;
15526;SDS011;7865;50.918;4.510;2023-07-28T13:56:54;3.90;;;1.38;;
15526;SDS011;7865;50.918;4.510;2023-07-28T14:01:59;1.67;;;1.17;;
15526;SDS011;7865;50.918;4.510;2023-07-28T14:07:00;2.28;;;1.30;;
15526;SDS011;7865;50.918;4.510;2023-07-28T14:12:02;5.93;;;1.10;;
15526;SDS011;7865;50.918;4.510;2023-07-28T14:17:03;1.25;;;1.00;;
15526;SDS011;7865;50.918;4.510;2023-07-28T14:22:05;1.42;;;1.08;;
15526;SDS011;7865;50.918;4.510;2023-07-28T14:27:06;3.47;;;1.50;;
15526;SDS011;7865;50.918;4.510;2023-07-28T14:32:07;2.60;;;1.20;;
15526;SDS011;7865;50.918;4.510;2023-07-28T14:37:09;1.85;;;1.10;;
15526;SDS011;7865;50.918;4.510;2023-07-28T14:42:10;2.05;;;1.30;;
15526;SDS011;7865;50.918;4.510;2023-07-28T14:47:12;1.02;;;1.00;;
15526;SDS011;7865;50.918;4.510;2023-07-28T14:52:13;1.77;;;1.00;;
15526;SDS011;7865;50.918;4.510;2023-07-28T14:57:14;1.00;;;1.00;;
15526;SDS011;7865;50.918;4.510;2023-07-28T15:02:35;1.55;;;1.27;;
15526;SDS011;7865;50.918;4.510;2023-07-28T15:07:39;2.40;;;1.20;;
15526;SDS011;7865;50.918;4.510;2023-07-28T15:12:40;1.95;;;1.40;;
15526;SDS011;7865;50.918;4.510;2023-07-28T15:17:45;2.15;;;1.30;;
15526;SDS011;7865;50.918;4.510;2023-07-28T15:22:46;3.38;;;1.73;;
15526;SDS011;7865;50.918;4.510;2023-07-28T15:27:48;2.35;;;1.25;;
15526;SDS011;7865;50.918;4.510;2023-07-28T15:32:49;1.42;;;1.30;;
15526;SDS011;7865;50.918;4.510;2023-07-28T15:37:51;3.78;;;1.58;;
15526;SDS011;7865;50.918;4.510;2023-07-28T15:42:52;2.22;;;1.45;;
15526;SDS011;7865;50.918;4.510;2023-07-28T15:47:54;1.83;;;1.20;;
15526;SDS011;7865;50.918;4.510;2023-07-28T15:52:55;1.60;;;1.40;;
15526;SDS011;7865;50.918;4.510;2023-07-28T15:57:56;1.67;;;1.15;;
15526;SDS011;7865;50.918;4.510;2023-07-28T16:02:58;1.60;;;1.50;;
15526;SDS011;7865;50.918;4.510;2023-07-28T16:07:59;1.58;;;1.30;;
15526;SDS011;7865;50.918;4.510;2023-07-28T16:13:01;1.85;;;1.30;;
15526;SDS011;7865;50.918;4.510;2023-07-28T16:18:02;3.08;;;2.05;;
15526;SDS011;7865;50.918;4.510;2023-07-28T16:23:04;3.83;;;1.35;;
15526;SDS011;7865;50.918;4.510;2023-07-28T16:28:05;2.50;;;1.50;;
15526;SDS011;7865;50.918;4.510;2023-07-28T16:33:07;2.35;;;1.60;;
15526;SDS011;7865;50.918;4.510;2023-07-28T16:38:09;1.60;;;1.30;;
15526;SDS011;7865;50.918;4.510;2023-07-28T16:43:10;1.88;;;1.50;;
15526;SDS011;7865;50.918;4.510;2023-07-28T16:48:12;4.53;;;1.40;;
15526;SDS011;7865;50.918;4.510;2023-07-28T16:53:13;1.60;;;1.50;;
15526;SDS011;7865;50.918;4.510;2023-07-28T16:58:15;3.67;;;1.60;;
15526;SDS011;7865;50.918;4.510;2023-07-28T17:03:17;3.40;;;1.70;;
15526;SDS011;7865;50.918;4.510;2023-07-28T17:08:18;3.15;;;1.42;;
15526;SDS011;7865;50.918;4.510;2023-07-28T17:13:20;4.45;;;1.75;;
15526;SDS011;7865;50.918;4.510;2023-07-28T17:18:22;2.92;;;2.08;;
15526;SDS011;7865;50.918;4.510;2023-07-28T17:23:23;5.18;;;1.60;;
15526;SDS011;7865;50.918;4.510;2023-07-28T17:28:24;4.47;;;1.90;;
15526;SDS011;7865;50.918;4.510;2023-07-28T17:33:25;1.70;;;1.60;;
15526;SDS011;7865;50.918;4.510;2023-07-28T17:38:27;1.63;;;1.52;;
15526;SDS011;7865;50.918;4.510;2023-07-28T17:43:29;3.20;;;1.40;;
15526;SDS011;7865;50.918;4.510;2023-07-28T17:48:31;2.03;;;1.83;;
15526;SDS011;7865;50.918;4.510;2023-07-28T17:53:32;2.45;;;1.50;;
15526;SDS011;7865;50.918;4.510;2023-07-28T17:58:33;5.07;;;2.00;;
15526;SDS011;7865;50.918;4.510;2023-07-28T18:03:35;2.15;;;1.70;;
15526;SDS011;7865;50.918;4.510;2023-07-28T18:08:37;4.13;;;1.50;;
15526;SDS011;7865;50.918;4.510;2023-07-28T18:13:38;3.05;;;1.50;;
15526;SDS011;7865;50.918;4.510;2023-07-28T18:18:39;1.83;;;1.73;;
15526;SDS011;7865;50.918;4.510;2023-07-28T18:23:41;2.33;;;1.80;;
15526;SDS011;7865;50.918;4.510;2023-07-28T18:28:42;2.75;;;1.85;;
15526;SDS011;7865;50.918;4.510;2023-07-28T18:33:44;2.72;;;2.10;;
15526;SDS011;7865;50.918;4.510;2023-07-28T18:38:45;1.80;;;1.70;;
15526;SDS011;7865;50.918;4.510;2023-07-28T18:43:46;2.00;;;1.80;;
15526;SDS011;7865;50.918;4.510;2023-07-28T18:48:48;1.63;;;1.35;;
15526;SDS011;7865;50.918;4.510;2023-07-28T18:53:50;2.65;;;1.60;;
15526;SDS011;7865;50.918;4.510;2023-07-28T18:58:52;3.13;;;1.70;;
15526;SDS011;7865;50.918;4.510;2023-07-28T19:03:53;1.80;;;1.65;;
15526;SDS011;7865;50.918;4.510;2023-07-28T19:08:55;1.52;;;1.25;;
15526;SDS011;7865;50.918;4.510;2023-07-28T19:13:56;2.60;;;1.50;;
15526;SDS011;7865;50.918;4.510;2023-07-28T19:18:57;1.98;;;1.45;;
15526;SDS011;7865;50.918;4.510;2023-07-28T19:23:59;2.53;;;1.60;;
15526;SDS011;7865;50.918;4.510;2023-07-28T19:29:00;3.75;;;2.10;;
15526;SDS011;7865;50.918;4.510;2023-07-28T19:34:04;2.72;;;1.85;;
15526;SDS011;7865;50.918;4.510;2023-07-28T19:39:05;2.33;;;1.60;;
15526;SDS011;7865;50.918;4.510;2023-07-28T19:44:07;3.55;;;1.83;;
15526;SDS011;7865;50.918;4.510;2023-07-28T19:49:09;2.90;;;2.10;;
15526;SDS011;7865;50.918;4.510;2023-07-28T19:54:12;2.10;;;1.90;;
15526;SDS011;7865;50.918;4.510;2023-07-28T19:59:14;1.95;;;1.75;;
15526;SDS011;7865;50.918;4.510;2023-07-28T20:04:16;2.70;;;1.98;;
15526;SDS011;7865;50.918;4.510;2023-07-28T20:09:18;3.15;;;1.92;;
15526;SDS011;7865;50.918;4.510;2023-07-28T20:14:20;4.22;;;2.03;;
15526;SDS011;7865;50.918;4.510;2023-07-28T20:19:22;4.00;;;1.80;;
15526;SDS011;7865;50.918;4.510;2023-07-28T20:24:23;3.63;;;2.25;;
15526;SDS011;7865;50.918;4.510;2023-07-28T20:29:25;3.50;;;1.75;;
15526;SDS011;7865;50.918;4.510;2023-07-28T20:34:26;4.00;;;2.55;;
15526;SDS011;7865;50.918;4.510;2023-07-28T20:39:27;2.10;;;1.63;;
15526;SDS011;7865;50.918;4.510;2023-07-28T20:44:29;2.20;;;1.83;;
15526;SDS011;7865;50.918;4.510;2023-07-28T20:49:30;2.00;;;1.83;;
15526;SDS011;7865;50.918;4.510;2023-07-28T20:54:32;3.22;;;1.98;;
15526;SDS011;7865;50.918;4.510;2023-07-28T20:59:33;2.33;;;2.13;;
15526;SDS011;7865;50.918;4.510;2023-07-28T21:04:35;2.92;;;2.40;;
15526;SDS011;7865;50.918;4.510;2023-07-28T21:09:38;4.13;;;2.08;;
15526;SDS011;7865;50.918;4.510;2023-07-28T21:14:39;2.60;;;2.40;;
15526;SDS011;7865;50.918;4.510;2023-07-28T21:19:42;3.08;;;2.38;;
15526;SDS011;7865;50.918;4.510;2023-07-28T21:24:44;3.38;;;2.30;;
15526;SDS011;7865;50.918;4.510;2023-07-28T21:29:45;4.05;;;3.55;;
15526;SDS011;7865;50.918;4.510;2023-07-28T21:34:48;13.23;;;2.83;;
15526;SDS011;7865;50.918;4.510;2023-07-28T21:39:49;2.85;;;2.55;;
15526;SDS011;7865;50.918;4.510;2023-07-28T21:44:51;4.20;;;2.10;;
15526;SDS011;7865;50.918;4.510;2023-07-28T21:49:52;4.40;;;2.10;;
15526;SDS011;7865;50.918;4.510;2023-07-28T21:54:54;5.45;;;2.30;;
15526;SDS011;7865;50.918;4.510;2023-07-28T21:59:56;3.53;;;2.10;;
15526;SDS011;7865;50.918;4.510;2023-07-28T22:04:57;4.10;;;2.03;;
15526;SDS011;7865;50.918;4.510;2023-07-28T22:09:59;2.38;;;2.05;;
15526;SDS011;7865;50.918;4.510;2023-07-28T22:15:01;4.53;;;2.50;;
15526;SDS011;7865;50.918;4.510;2023-07-28T22:20:05;3.50;;;2.50;;
15526;SDS011;7865;50.918;4.510;2023-07-28T22:25:08;6.97;;;3.15;;
15526;SDS011;7865;50.918;4.510;2023-07-28T22:30:09;3.83;;;2.40;;
15526;SDS011;7865;50.918;4.510;2023-07-28T22:35:11;3.88;;;2.85;;
15526;SDS011;7865;50.918;4.510;2023-07-28T22:40:12;3.22;;;2.20;;
15526;SDS011;7865;50.918;4.510;2023-07-28T22:45:14;4.13;;;2.35;;
15526;SDS011;7865;50.918;4.510;2023-07-28T22:50:15;1.98;;;1.70;;
15526;SDS011;7865;50.918;4.510;2023-07-28T22:55:17;1.98;;;1.77;;
15526;SDS011;7865;50.918;4.510;2023-07-28T23:00:18;5.35;;;1.80;;
15526;SDS011;7865;50.918;4.510;2023-07-28T23:05:24;3.20;;;1.55;;
15526;SDS011;7865;50.918;4.510;2023-07-28T23:10:26;2.42;;;1.88;;
15526;SDS011;7865;50.918;4.510;2023-07-28T23:15:28;3.13;;;1.70;;
15526;SDS011;7865;50.918;4.510;2023-07-28T23:20:29;2.58;;;1.75;;
15526;SDS011;7865;50.918;4.510;2023-07-28T23:25:31;5.05;;;1.73;;
15526;SDS011;7865;50.918;4.510;2023-07-28T23:30:33;2.22;;;1.42;;
15526;SDS011;7865;50.918;4.510;2023-07-28T23:35:34;3.33;;;1.80;;
15526;SDS011;7865;50.918;4.510;2023-07-28T23:40:35;3.03;;;1.83;;
15526;SDS011;7865;50.918;4.510;2023-07-28T23:45:37;3.92;;;1.77;;
15526;SDS011;7865;50.918;4.510;2023-07-28T23:50:38;2.42;;;2.03;;
15526;SDS011;7865;50.918;4.510;2023-07-28T23:55:39;3.78;;;1.60;;
